Time;durP1;ratioP1;P1;durP2;ratioP2;P2;SDS_P1;SDS_P2;PMS_P1;PMS_P2;Temp;Humidity;BMP_temperature;BMP_pressure;BME280_temperature;BME280_humidity;BME280_pressure;Samples;Min_cycle;Max_cycle;Signal;HPM_P1;HPM_P2
2022/05/04 00:01:44;;;;;;;4.40;2.10;;;;;;;7.39;61.81;98633.93;104991;1269;61154;-26
2022/05/04 00:04:12;;;;;;;6.70;2.20;;;;;;;7.34;61.89;98632.90;104940;1271;75490;-26
2022/05/04 00:06:39;;;;;;;4.80;2.40;;;;;;;7.32;62.08;98632.02;104937;1270;75842;-26
2022/05/04 00:09:06;;;;;;;2.90;2.00;;;;;;;7.27;62.41;98632.84;104901;1271;74386;-27
2022/05/04 00:11:34;;;;;;;5.70;1.90;;;;;;;7.25;62.62;98633.03;104970;1271;61747;-26
2022/05/04 00:14:02;;;;;;;3.70;2.50;;;;;;;7.20;63.06;98633.76;105015;1269;61108;-26
2022/05/04 00:16:29;;;;;;;6.30;1.60;;;;;;;7.18;63.27;98631.08;105139;1271;75384;-26
2022/05/04 00:18:56;;;;;;;2.80;1.60;;;;;;;7.79;61.66;98630.58;105147;1271;76148;-27
2022/05/04 00:21:23;;;;;;;4.90;1.70;;;;;;;8.31;59.52;98636.10;105165;1270;74294;-26
2022/05/04 00:23:50;;;;;;;3.40;1.60;;;;;;;8.45;59.08;98639.63;105037;1271;61178;-27
2022/05/04 00:26:17;;;;;;;5.20;1.70;;;;;;;8.24;59.64;98642.30;105157;1271;61133;-27
2022/05/04 00:28:44;;;;;;;3.80;2.00;;;;;;;7.96;60.37;98640.61;105056;1271;75502;-28
2022/05/04 00:31:12;;;;;;;2.30;1.50;;;;;;;7.77;60.74;98641.96;104986;1271;75865;-28
2022/05/04 00:33:39;;;;;;;3.10;2.00;;;;;;;7.53;61.31;98644.92;104986;1270;74276;-26
2022/05/04 00:36:06;;;;;;;3.40;1.80;;;;;;;7.37;61.67;98646.15;104934;1271;62084;-26
2022/05/04 00:38:33;;;;;;;6.70;2.20;;;;;;;7.21;62.03;98649.38;105162;1271;60992;-25
2022/05/04 00:41:00;;;;;;;4.80;1.80;;;;;;;7.07;62.76;98653.88;105194;1271;75485;-26
2022/05/04 00:43:27;;;;;;;4.60;2.20;;;;;;;6.95;63.33;98649.89;104973;1271;76198;-27
2022/05/04 00:45:54;;;;;;;2.90;1.80;;;;;;;6.86;63.90;98655.88;105001;1271;74403;-26
2022/05/04 00:48:21;;;;;;;3.80;1.80;;;;;;;6.82;63.79;98651.53;104967;1271;61238;-27
2022/05/04 00:50:49;;;;;;;7.60;1.80;;;;;;;6.81;63.65;98656.77;104922;1271;61065;-27
2022/05/04 00:53:17;;;;;;;9.20;1.70;;;;;;;6.78;63.73;98660.41;104828;1271;74351;-26
2022/05/04 00:55:45;;;;;;;5.10;1.90;;;;;;;6.79;63.51;98662.77;104867;1271;75932;-26
2022/05/04 01:01:00;;;;;;;2.30;1.80;;;;;;;6.71;63.70;98670.20;104916;1271;61173;-26
2022/05/04 01:03:27;;;;;;;3.30;2.00;;;;;;;6.63;64.19;98672.02;104893;1271;61186;-27
2022/05/04 01:05:54;;;;;;;1.80;1.30;;;;;;;6.61;64.57;98674.03;105128;1270;75584;-26
2022/05/04 01:08:21;;;;;;;5.20;1.50;;;;;;;7.17;63.55;98675.40;105383;1271;75927;-26
2022/05/04 01:10:49;;;;;;;2.70;1.50;;;;;;;7.78;61.63;98672.63;105189;1271;74438;-26
2022/05/04 01:13:20;;;;;;;1.50;1.20;;;;;;;7.91;60.74;98673.06;105062;1271;61045;-26
2022/05/04 01:15:48;;;;;;;3.70;1.50;;;;;;;7.77;60.94;98677.19;104664;1271;61080;-26
2022/05/04 01:18:15;;;;;;;3.90;1.70;;;;;;;7.56;61.36;98678.59;104799;1272;75423;-26
2022/05/04 01:20:42;;;;;;;5.30;1.70;;;;;;;7.35;61.79;98682.21;105119;1271;74555;-26
2022/05/04 01:23:09;;;;;;;4.00;2.20;;;;;;;7.10;62.56;98681.05;104993;1271;74425;-25
2022/05/04 01:25:37;;;;;;;3.70;1.60;;;;;;;6.94;62.97;98677.94;104922;1271;60993;-25
2022/05/04 01:28:05;;;;;;;2.90;1.70;;;;;;;6.74;63.58;98680.38;104968;1271;61036;-25
2022/05/04 01:30:34;;;;;;;6.00;1.80;;;;;;;6.52;64.46;98678.12;104804;1271;75525;-26
2022/05/04 01:33:02;;;;;;;3.00;1.70;;;;;;;6.33;65.19;98680.63;104921;1271;75699;-26
2022/05/04 01:35:29;;;;;;;4.50;1.90;;;;;;;6.24;65.56;98681.98;104958;1271;74360;-26
2022/05/04 01:37:57;;;;;;;3.30;2.00;;;;;;;6.13;66.18;98682.35;104967;1271;61120;-26
2022/05/04 01:40:24;;;;;;;3.70;1.80;;;;;;;6.01;66.85;98685.04;105357;1271;61041;-26
2022/05/04 01:42:52;;;;;;;2.70;1.40;;;;;;;6.45;65.65;98684.83;105334;1271;75602;-26
2022/05/04 01:45:19;;;;;;;3.10;1.70;;;;;;;7.06;63.44;98684.12;104885;1271;76090;-26
2022/05/04 01:47:50;;;;;;;4.70;1.80;;;;;;;7.07;63.05;98685.64;104966;1271;74349;-25
2022/05/04 01:50:17;;;;;;;3.50;1.90;;;;;;;6.95;63.36;98687.31;104902;1272;61792;-26
2022/05/04 01:52:44;;;;;;;3.20;1.70;;;;;;;6.77;64.04;98683.64;105172;1271;61033;-25
2022/05/04 01:55:14;;;;;;;3.40;1.70;;;;;;;6.52;64.79;98686.91;105388;1270;75509;-26
2022/05/04 01:57:41;;;;;;;4.00;2.10;;;;;;;6.37;65.35;98688.27;104987;1269;76060;-26
2022/05/04 02:00:09;;;;;;;5.40;2.10;;;;;;;6.23;66.05;98690.84;104962;1271;74307;-26
2022/05/04 02:02:43;;;;;;;2.70;1.90;;;;;;;6.13;66.39;98687.92;104852;1271;61147;-26
2022/05/04 02:05:10;;;;;;;3.60;2.20;;;;;;;6.05;66.88;98688.56;104978;1271;61111;-25
2022/05/04 02:07:37;;;;;;;6.30;1.60;;;;;;;5.99;67.15;98691.05;104980;1271;75557;-27
2022/05/04 02:10:05;;;;;;;2.30;1.00;;;;;;;5.95;67.47;98690.41;105012;1271;75963;-28
2022/05/04 02:12:35;;;;;;;1.70;1.20;;;;;;;6.52;66.35;98692.59;104800;1271;74321;-25
2022/05/04 02:15:06;;;;;;;6.10;1.50;;;;;;;7.13;64.43;98696.02;104968;1271;61254;-26
2022/05/04 02:17:33;;;;;;;2.60;1.40;;;;;;;7.22;63.72;98694.38;104911;1271;61511;-26
2022/05/04 02:20:01;;;;;;;6.30;1.70;;;;;;;6.98;64.10;98695.73;104945;1271;75413;-26
2022/05/04 02:22:28;;;;;;;2.30;1.30;;;;;;;6.68;64.79;98700.13;104927;1271;75251;-26
2022/05/04 02:24:56;;;;;;;2.40;1.40;;;;;;;6.37;65.55;98707.25;104976;1271;74313;-26
2022/05/04 02:27:23;;;;;;;2.30;1.50;;;;;;;6.04;66.74;98708.48;104967;1271;61341;-27
2022/05/04 02:29:50;;;;;;;3.40;2.00;;;;;;;5.77;67.74;98710.95;104892;1271;62094;-26
2022/05/04 02:32:18;;;;;;;4.40;1.80;;;;;;;5.61;68.29;98706.15;104858;1271;75560;-26
2022/05/04 02:40:16;;;;;;;3.50;1.70;;;;;;;5.92;68.49;98720.30;105154;1271;61144;-25
2022/05/04 02:42:43;;;;;;;6.20;1.90;;;;;;;6.30;67.04;98724.47;105169;1271;62097;-26
2022/05/04 02:45:10;;;;;;;3.90;1.60;;;;;;;6.11;67.43;98730.09;104944;1271;75533;-26
2022/05/04 02:47:38;;;;;;;4.00;2.20;;;;;;;6.00;67.64;98730.10;104923;1271;75992;-26
2022/05/04 02:50:09;;;;;;;3.80;1.60;;;;;;;5.85;68.25;98732.45;104950;1271;74425;-26
2022/05/04 02:52:36;;;;;;;4.10;1.90;;;;;;;5.60;69.23;98735.48;104992;1271;61140;-26
2022/05/04 02:55:04;;;;;;;3.90;2.20;;;;;;;5.40;70.11;98736.23;105073;1270;61104;-26
2022/05/04 02:57:31;;;;;;;3.10;2.10;;;;;;;5.29;70.74;98741.60;104908;1271;75733;-27
2022/05/04 02:59:58;;;;;;;2.60;1.80;;;;;;;5.22;71.18;98743.63;105077;1271;75967;-28
2022/05/04 03:02:28;;;;;;;1.80;1.40;;;;;;;5.20;71.53;98748.85;104911;1271;74480;-27
2022/05/04 03:05:06;;;;;;;2.50;1.20;;;;;;;5.86;69.68;98747.18;104939;1270;61549;-26
2022/05/04 03:07:33;;;;;;;2.70;1.50;;;;;;;6.69;66.56;98750.79;104911;1270;61027;-27
2022/05/04 03:10:00;;;;;;;3.90;1.80;;;;;;;6.85;65.37;98754.29;104917;1271;75687;-25
2022/05/04 03:12:29;;;;;;;5.50;2.00;;;;;;;6.74;65.61;98762.48;104968;1271;75887;-27
2022/05/04 03:14:56;;;;;;;4.10;1.90;;;;;;;6.65;66.00;98766.86;104963;1271;74273;-28
2022/05/04 03:17:23;;;;;;;4.50;2.10;;;;;;;6.67;65.86;98770.69;104927;1270;61841;-26
2022/05/04 03:19:50;;;;;;;3.10;1.90;;;;;;;6.64;66.25;98777.50;105197;1270;61158;-26
2022/05/04 03:22:17;;;;;;;6.10;1.80;;;;;;;6.64;66.34;98779.39;105326;1270;75449;-27
2022/05/04 03:24:45;;;;;;;6.30;2.30;;;;;;;6.54;67.12;98781.31;105085;1271;76057;-28
2022/05/04 03:27:12;;;;;;;3.60;1.70;;;;;;;6.57;67.21;98786.58;104923;1271;74399;-27
2022/05/04 03:29:39;;;;;;;2.20;1.70;;;;;;;6.56;67.33;98789.23;105043;1271;61169;-27
2022/05/04 03:32:07;;;;;;;2.70;1.40;;;;;;;6.66;67.22;98795.98;104998;1271;61798;-27
2022/05/04 03:34:36;;;;;;;3.60;1.70;;;;;;;7.40;65.13;98800.66;104885;1271;75497;-26
2022/05/04 03:37:04;;;;;;;4.00;1.70;;;;;;;8.04;61.90;98803.98;105109;1271;75767;-26
2022/05/04 03:39:33;;;;;;;2.40;1.80;;;;;;;8.24;61.14;98803.34;104901;1271;74206;-26
2022/05/04 03:42:00;;;;;;;2.90;1.60;;;;;;;8.25;61.27;98802.93;104936;1271;61987;-26
2022/05/04 03:44:28;;;;;;;2.10;1.50;;;;;;;8.20;61.27;98807.79;104983;1271;61066;-26
2022/05/04 03:46:55;;;;;;;2.50;1.90;;;;;;;8.19;61.45;98807.00;105140;1271;75503;-26
2022/05/04 03:49:23;;;;;;;3.60;2.10;;;;;;;8.10;61.84;98812.79;105123;1272;75773;-26
2022/05/04 03:51:51;;;;;;;3.80;2.30;;;;;;;8.03;62.06;98814.54;104871;1271;74384;-26
2022/05/04 03:54:19;;;;;;;3.30;2.00;;;;;;;8.06;62.13;98818.67;104994;1271;61048;-26
2022/05/04 03:56:46;;;;;;;5.50;2.30;;;;;;;8.10;62.47;98822.34;105414;1271;61166;-26
2022/05/04 03:59:13;;;;;;;4.80;2.20;;;;;;;8.08;62.44;98827.64;105026;1271;75449;-26
2022/05/04 04:01:40;;;;;;;3.70;2.00;;;;;;;8.20;62.05;98830.46;105000;1271;75395;-26
2022/05/04 04:04:08;;;;;;;3.90;1.90;;;;;;;8.31;61.55;98837.39;105134;1272;74312;-26
2022/05/04 04:06:35;;;;;;;3.00;1.90;;;;;;;8.34;61.60;98837.69;105423;1271;62363;-26
2022/05/04 04:09:03;;;;;;;2.80;2.00;;;;;;;8.40;61.62;98842.56;105077;1271;61868;-26
2022/05/04 04:11:31;;;;;;;5.80;2.20;;;;;;;8.58;61.60;98843.00;104874;1272;75615;-26
2022/05/04 04:13:58;;;;;;;5.00;2.10;;;;;;;8.71;61.22;98842.21;104932;1271;75681;-26
2022/05/04 04:16:26;;;;;;;2.80;2.00;;;;;;;8.81;61.12;98844.71;104993;1271;74202;-26
2022/05/04 04:18:53;;;;;;;2.90;1.90;;;;;;;8.88;60.72;98842.25;105355;1271;61774;-26
2022/05/04 04:24:06;;;;;;;2.80;1.90;;;;;;;8.98;60.36;98842.01;105142;1271;74484;-25
2022/05/04 04:26:36;;;;;;;2.60;1.70;;;;;;;9.15;60.23;98848.48;105067;1271;75896;-25
2022/05/04 04:29:03;;;;;;;6.00;2.50;;;;;;;9.18;59.95;98853.46;105000;1271;73331;-25
2022/05/04 04:31:30;;;;;;;4.80;1.90;;;;;;;9.12;60.28;98854.96;105343;1271;61693;-26
2022/05/04 04:33:58;;;;;;;8.00;3.40;;;;;;;9.15;60.20;98859.09;105370;1272;61160;-25
2022/05/04 04:36:25;;;;;;;8.20;2.70;;;;;;;9.34;60.34;98862.94;105169;1271;75940;-26
2022/05/04 04:38:52;;;;;;;7.40;2.20;;;;;;;9.51;60.25;98864.70;105413;1271;75937;-25
2022/05/04 04:41:19;;;;;;;3.70;2.30;;;;;;;9.75;59.75;98863.69;105032;1271;73385;-26
2022/05/04 04:43:46;;;;;;;3.50;2.10;;;;;;;9.86;59.48;98867.09;104959;1271;61071;-25
2022/05/04 04:46:14;;;;;;;5.10;2.70;;;;;;;9.85;59.69;98869.27;104939;1271;61032;-25
2022/05/04 04:48:41;;;;;;;4.60;2.10;;;;;;;9.88;60.27;98869.76;104961;1271;75411;-26
2022/05/04 04:51:08;;;;;;;3.10;1.80;;;;;;;9.87;59.92;98872.08;104926;1272;75831;-26
2022/05/04 04:53:35;;;;;;;3.80;2.50;;;;;;;9.83;59.70;98874.15;104936;1271;74344;-26
2022/05/04 04:56:02;;;;;;;5.10;2.70;;;;;;;9.66;59.95;98872.36;105032;1271;61054;-25
2022/05/04 04:58:30;;;;;;;2.90;2.00;;;;;;;9.51;60.25;98873.05;105034;1270;61060;-25
2022/05/04 05:00:58;;;;;;;3.30;2.30;;;;;;;9.47;60.86;98871.77;105067;1271;75487;-26
2022/05/04 05:03:25;;;;;;;4.70;2.50;;;;;;;9.43;60.95;98872.45;104984;1270;75026;-25
2022/05/04 05:05:53;;;;;;;3.10;2.00;;;;;;;9.37;60.73;98871.71;104849;1271;74357;-25
2022/05/04 05:08:20;;;;;;;5.70;2.20;;;;;;;9.45;61.08;98872.52;104912;1271;61021;-25
2022/05/04 05:10:48;;;;;;;3.60;1.90;;;;;;;9.60;61.13;98875.93;104955;1272;61051;-26
2022/05/04 05:13:16;;;;;;;5.50;1.90;;;;;;;9.70;61.33;98872.79;104983;1271;75485;-25
2022/05/04 05:18:29;;;;;;;4.80;2.20;;;;;;;9.86;61.11;98878.25;104871;1271;74172;-27
2022/05/04 05:20:56;;;;;;;2.80;1.90;;;;;;;10.07;60.61;98881.69;104976;1271;61170;-26
2022/05/04 05:23:24;;;;;;;28.10;3.20;;;;;;;10.21;60.24;98881.59;104857;1271;61148;-26
2022/05/04 05:25:51;;;;;;;7.10;2.20;;;;;;;10.25;60.05;98879.77;104994;1270;75446;-26
2022/05/04 05:28:19;;;;;;;4.70;2.10;;;;;;;10.31;59.60;98883.06;104982;1271;75778;-26
2022/05/04 05:30:46;;;;;;;4.20;1.90;;;;;;;10.43;58.74;98885.91;104954;1271;74178;-26
2022/05/04 05:33:13;;;;;;;3.50;2.20;;;;;;;10.60;58.48;98890.11;104925;1272;61149;-26
2022/05/04 05:35:40;;;;;;;3.80;2.00;;;;;;;10.82;59.33;98891.49;104946;1272;62138;-26
2022/05/04 05:38:09;;;;;;;6.70;2.50;;;;;;;11.05;57.66;98898.27;104958;1271;75343;-26
2022/05/04 05:40:37;;;;;;;8.80;2.30;;;;;;;10.98;57.56;98898.85;104942;1271;75373;-26
2022/05/04 05:43:04;;;;;;;2.80;1.60;;;;;;;11.11;57.45;98902.10;104958;1271;74356;-26
2022/05/04 05:45:32;;;;;;;3.90;2.40;;;;;;;11.20;56.53;98903.60;104793;1271;61204;-26
2022/05/04 05:47:59;;;;;;;5.50;2.10;;;;;;;11.19;56.71;98904.08;105213;1271;62371;-26
2022/05/04 05:50:26;;;;;;;2.20;1.60;;;;;;;11.33;56.58;98905.07;104967;1271;75471;-26
2022/05/04 05:52:55;;;;;;;5.70;2.10;;;;;;;11.31;56.45;98908.27;105302;1271;75822;-26
2022/05/04 05:55:22;;;;;;;4.70;1.60;;;;;;;11.37;56.84;98902.81;105056;1272;74654;-25
2022/05/04 05:57:49;;;;;;;10.20;2.40;;;;;;;11.48;55.94;98907.30;104944;1271;62515;-25
2022/05/04 06:00:17;;;;;;;7.50;2.70;;;;;;;11.54;55.41;98910.57;104998;1271;61117;-25
2022/05/04 06:02:45;;;;;;;6.00;1.90;;;;;;;11.48;56.13;98906.95;104990;1271;75526;-25
2022/05/04 06:05:12;;;;;;;3.60;1.50;;;;;;;11.46;55.11;98915.09;104974;1271;76078;-26
2022/05/04 06:07:39;;;;;;;9.10;2.60;;;;;;;11.48;56.10;98910.02;104818;1274;74361;-25
2022/05/04 06:10:07;;;;;;;5.50;1.70;;;;;;;11.75;55.83;98914.09;104921;1271;62063;-25
2022/05/04 06:12:34;;;;;;;4.30;2.20;;;;;;;11.94;55.60;98916.30;104824;1274;61127;-25
2022/05/04 06:15:02;;;;;;;5.10;1.90;;;;;;;12.01;54.69;98917.07;104975;1271;75464;-25
2022/05/04 06:17:29;;;;;;;3.80;2.00;;;;;;;12.12;54.21;98915.40;104976;1271;75942;-25
2022/05/04 06:19:57;;;;;;;3.00;1.90;;;;;;;11.98;52.83;98922.55;104946;1271;74379;-26
2022/05/04 06:22:24;;;;;;;3.90;1.80;;;;;;;12.06;53.64;98920.96;104948;1271;61845;-26
2022/05/04 06:24:51;;;;;;;3.80;1.90;;;;;;;12.13;52.58;98922.33;104955;1271;61156;-25
2022/05/04 06:27:18;;;;;;;5.00;2.10;;;;;;;11.93;52.82;98923.89;104986;1271;75590;-25
2022/05/04 06:35:17;;;;;;;5.60;2.10;;;;;;;12.29;52.60;98929.70;105363;1269;61094;-25
2022/05/04 06:37:44;;;;;;;12.10;2.20;;;;;;;12.41;51.76;98925.01;105356;1271;61082;-25
2022/05/04 06:40:12;;;;;;;3.40;2.00;;;;;;;12.49;51.58;98927.44;105408;1271;75445;-25
2022/05/04 06:42:39;;;;;;;3.20;1.80;;;;;;;12.76;51.40;98930.54;105385;1271;76005;-24
2022/05/04 06:45:07;;;;;;;3.90;2.00;;;;;;;12.96;49.77;98924.36;105373;1270;75857;-25
2022/05/04 06:47:35;;;;;;;4.60;1.80;;;;;;;13.11;50.43;98925.21;105133;1272;61140;-25
2022/05/04 06:50:03;;;;;;;3.00;1.80;;;;;;;13.30;49.08;98926.54;105359;1272;61149;-26
2022/05/04 06:52:32;;;;;;;3.60;1.60;;;;;;;13.54;49.82;98923.60;104994;1271;75948;-27
2022/05/04 06:54:59;;;;;;;2.90;1.20;;;;;;;13.58;49.79;98921.65;105039;1274;75182;-25
2022/05/04 06:57:26;;;;;;;4.00;1.40;;;;;;;13.35;49.49;98923.84;105148;1271;74201;-26
2022/05/04 06:59:54;;;;;;;4.90;1.80;;;;;;;13.19;48.62;98924.09;105187;1270;61121;-26
2022/05/04 07:02:22;;;;;;;4.80;1.90;;;;;;;13.44;48.08;98928.06;105147;1271;61911;-26
2022/05/04 07:04:49;;;;;;;12.50;1.90;;;;;;;13.45;46.43;98934.21;105260;1271;75595;-24
2022/05/04 07:07:16;;;;;;;1.90;1.60;;;;;;;13.50;47.36;98932.61;105077;1271;76450;-26
2022/05/04 07:09:43;;;;;;;2.80;1.30;;;;;;;13.68;47.99;98934.89;104999;1271;74253;-27
2022/05/04 07:12:10;;;;;;;2.30;1.20;;;;;;;13.71;46.78;98929.16;104909;1271;62045;-27
2022/05/04 07:14:38;;;;;;;3.70;1.50;;;;;;;13.67;46.03;98927.13;104967;1271;61011;-27
2022/05/04 07:17:06;;;;;;;5.40;2.00;;;;;;;13.68;45.47;98931.27;104985;1271;75507;-26
2022/05/04 07:19:33;;;;;;;2.70;1.30;;;;;;;13.72;45.17;98936.21;105004;1271;75789;-27
2022/05/04 07:22:00;;;;;;;3.70;1.80;;;;;;;14.01;46.19;98944.83;104963;1271;74295;-27
2022/05/04 07:24:27;;;;;;;4.50;1.50;;;;;;;13.92;44.91;98944.91;104954;1271;61027;-27
2022/05/04 07:26:55;;;;;;;2.70;1.50;;;;;;;14.12;45.10;98947.05;104994;1271;61121;-26
2022/05/04 07:29:23;;;;;;;5.40;1.40;;;;;;;13.97;44.52;98946.04;105204;1271;75396;-27
2022/05/04 07:31:50;;;;;;;6.90;1.70;;;;;;;13.87;44.28;98946.27;104847;1271;76123;-27
2022/05/04 07:34:18;;;;;;;1.70;1.10;;;;;;;13.85;44.81;98951.72;104983;1271;74285;-25
2022/05/04 07:36:45;;;;;;;4.00;1.70;;;;;;;13.79;44.92;98942.49;104928;1271;62139;-26
2022/05/04 07:44:46;;;;;;;1.60;1.30;;;;;;;14.07;44.69;98955.90;104844;1271;75960;-25
2022/05/04 07:47:13;;;;;;;2.00;1.50;;;;;;;14.08;44.95;98958.80;104739;1271;373579;-27
2022/05/04 07:49:40;;;;;;;2.30;1.30;;;;;;;14.17;45.49;98953.33;104760;1271;61124;-25
2022/05/04 07:52:07;;;;;;;4.90;1.40;;;;;;;14.40;46.41;98959.79;105062;1271;62098;-25
2022/05/04 07:54:34;;;;;;;4.70;1.50;;;;;;;14.41;44.09;98955.20;104889;1271;75493;-25
2022/05/04 07:57:02;;;;;;;2.60;1.40;;;;;;;14.43;43.69;98953.82;104962;1271;75844;-25
2022/05/04 07:59:29;;;;;;;2.70;1.20;;;;;;;14.64;42.75;98952.42;105071;1270;74369;-25
2022/05/04 08:04:43;;;;;;;2.60;1.20;;;;;;;14.83;39.33;98950.70;104931;1269;61017;-26
2022/05/04 08:07:10;;;;;;;2.10;1.00;;;;;;;14.63;40.66;98950.80;104865;1271;75846;-26
2022/05/04 08:09:40;;;;;;;2.10;1.00;;;;;;;14.56;40.78;98942.25;105012;1271;75939;-25
2022/05/04 08:12:08;;;;;;;2.90;1.80;;;;;;;14.35;40.57;98959.95;105166;1271;73392;-25
2022/05/04 08:14:36;;;;;;;13.30;1.30;;;;;;;14.54;41.29;98964.11;104869;1271;62075;-25
2022/05/04 08:17:05;;;;;;;1.30;1.00;;;;;;;14.84;41.57;98965.02;104993;1271;61176;-25
2022/05/04 08:19:32;;;;;;;2.50;1.00;;;;;;;14.53;41.42;98959.76;104803;1271;75712;-25
2022/05/04 08:22:00;;;;;;;8.60;1.40;;;;;;;14.77;41.73;98970.52;104777;1272;76131;-25
2022/05/04 08:24:28;;;;;;;3.80;1.10;;;;;;;15.12;40.55;98966.34;105121;1271;74637;-25
2022/05/04 08:26:55;;;;;;;4.30;1.30;;;;;;;15.14;39.07;98961.67;104943;1271;61173;-26
2022/05/04 08:29:23;;;;;;;3.10;1.10;;;;;;;14.55;38.15;98952.65;104894;1271;61104;-26
2022/05/04 08:31:50;;;;;;;3.90;1.30;;;;;;;14.17;39.17;98947.80;105382;1271;76167;-26
2022/05/04 08:34:17;;;;;;;2.10;1.10;;;;;;;14.01;42.04;98969.58;105368;1271;75783;-26
2022/05/04 08:36:44;;;;;;;1.80;1.00;;;;;;;14.71;41.40;98965.94;105030;1271;74781;-25
2022/05/04 08:39:10;;;;;;;3.00;1.10;;;;;;;14.72;39.23;98964.91;104957;1271;62040;-25
2022/05/04 08:41:41;;;;;;;2.00;1.00;;;;;;;14.49;37.60;98959.14;105054;1271;61000;-26
2022/05/04 08:44:13;;;;;;;3.80;1.10;;;;;;;14.91;35.73;98962.83;105080;1271;75538;-26
2022/05/04 08:46:42;;;;;;;9.60;1.30;;;;;;;14.93;36.45;98963.79;104877;1271;75945;-26
2022/05/04 08:49:11;;;;;;;3.20;1.00;;;;;;;14.89;37.52;98962.84;104820;1270;74375;-26
2022/05/04 08:51:39;;;;;;;2.20;0.90;;;;;;;14.75;38.18;98961.71;104833;1271;62311;-26
2022/05/04 08:54:07;;;;;;;12.20;1.70;;;;;;;14.62;37.96;98964.71;104977;1271;62018;-26
2022/05/04 08:56:34;;;;;;;6.50;1.10;;;;;;;14.34;37.76;98969.58;104888;1272;75396;-25
2022/05/04 08:59:02;;;;;;;1.10;0.70;;;;;;;14.49;38.74;98971.77;105274;1271;76117;-25
2022/05/04 09:01:37;;;;;;;2.80;1.00;;;;;;;14.36;37.33;98978.42;104960;1271;74278;-25
2022/05/04 09:04:04;;;;;;;6.20;0.90;;;;;;;14.04;37.68;98976.46;104852;1271;61959;-26
2022/05/04 09:06:33;;;;;;;4.40;0.90;;;;;;;13.76;36.93;98978.99;104874;1271;61159;-28
2022/05/04 09:09:10;;;;;;;1.60;0.80;;;;;;;13.64;37.16;98978.55;105046;1272;75543;-25
2022/05/04 09:11:38;;;;;;;1.90;0.80;;;;;;;14.45;38.02;98974.55;104967;1271;75999;-26
2022/05/04 09:15:22;;;;;;;3.70;1.30;;;;;;;15.26;38.81;98981.79;102289;1303;600335;-24
2022/05/04 09:18:09;;;;;;;2.30;0.80;;;;;;;15.76;35.50;98969.96;104296;1287;61171;-25
2022/05/04 09:21:16;;;;;;;1.80;0.80;;;;;;;15.49;33.79;98968.92;104274;1284;61887;-27
2022/05/04 09:23:52;;;;;;;5.40;1.40;;;;;;;16.03;34.99;98980.50;104251;1284;74094;-27
2022/05/04 09:26:22;;;;;;;4.60;0.90;;;;;;;15.83;33.79;98976.98;104277;1284;75289;-28
2022/05/04 09:28:51;;;;;;;1.50;1.30;;;;;;;15.59;34.30;98982.55;104135;1282;376507;-28
2022/05/04 09:31:24;;;;;;;1.80;0.80;;;;;;;15.64;34.70;98986.66;104487;1283;61228;-28
2022/05/04 09:33:57;;;;;;;30.40;1.50;;;;;;;15.53;34.26;98988.02;104375;1281;62385;-27
2022/05/04 09:36:36;;;;;;;4.40;1.20;;;;;;;15.24;34.72;98990.14;104421;1284;73203;-27
2022/05/04 09:45:14;;;;;;;5.70;1.00;;;;;;;15.91;32.49;98980.23;104442;1284;61953;-27
2022/05/04 09:47:46;;;;;;;3.80;1.10;;;;;;;15.97;33.59;98982.49;104484;1284;61218;-28
2022/05/04 09:50:17;;;;;;;1.40;0.80;;;;;;;15.62;34.05;98982.73;104831;1274;74767;-28
2022/05/04 09:52:47;;;;;;;6.20;1.40;;;;;;;15.15;34.59;98988.45;104835;1274;76139;-29
2022/05/04 09:55:24;;;;;;;4.60;1.40;;;;;;;14.69;36.32;98988.60;104675;1274;72200;-28
2022/05/04 09:57:54;;;;;;;3.30;1.30;;;;;;;15.11;36.26;98994.65;104689;1274;61088;-29
2022/05/04 10:00:27;;;;;;;3.60;1.50;;;;;;;15.44;34.27;98991.84;104825;1274;61759;-28
2022/05/04 10:02:57;;;;;;;;;;;;;;;15.82;33.41;98990.52;104694;1275;74795;-29
2022/05/04 10:05:26;;;;;;;1.80;1.10;;;;;;;15.81;31.56;98985.90;104820;1274;76506;-28
2022/05/04 10:07:56;;;;;;;2.90;1.50;;;;;;;16.04;30.60;98982.48;104987;1274;74384;-27
2022/05/04 10:10:25;;;;;;;4.20;1.00;;;;;;;16.09;30.37;98974.95;104814;1274;61070;-27
2022/05/04 10:12:53;;;;;;;3.30;1.30;;;;;;;16.52;29.83;98980.90;105173;1271;62094;-28
2022/05/04 10:15:22;;;;;;;4.90;1.10;;;;;;;16.67;30.24;98979.68;104931;1271;74764;-26
2022/05/04 10:18:05;;;;;;;2.20;1.00;;;;;;;16.50;29.82;98976.21;105100;1270;75856;-26
2022/05/04 10:20:42;;;;;;;1.90;1.10;;;;;;;15.81;32.42;98971.71;105022;1274;74532;-25
2022/05/04 10:23:24;;;;;;;3.90;1.20;;;;;;;15.29;34.05;98968.67;104772;1271;62687;-26
2022/05/04 10:25:57;;;;;;;4.90;1.70;;;;;;;15.15;34.54;98982.17;104903;1271;61373;-26
2022/05/04 10:28:25;;;;;;;4.10;1.10;;;;;;;14.93;34.72;98983.45;105013;1271;74765;-25
2022/05/04 10:30:55;;;;;;;3.80;1.30;;;;;;;14.54;35.45;98989.02;104942;1271;76006;-26
2022/05/04 10:33:31;;;;;;;3.10;1.20;;;;;;;14.00;36.71;98987.81;104667;1271;74170;-26
2022/05/04 10:36:16;;;;;;;11.30;1.60;;;;;;;14.72;36.12;98990.92;104805;1271;61148;-26
2022/05/04 10:38:46;;;;;;;4.80;1.00;;;;;;;15.54;32.50;98991.19;104950;1271;61631;-26
2022/05/04 10:41:15;;;;;;;3.30;1.00;;;;;;;16.32;31.43;98987.95;105076;1271;72914;-25
2022/05/04 10:43:50;;;;;;;7.70;1.10;;;;;;;16.39;29.32;98978.33;105112;1271;75032;-26
2022/05/04 10:46:23;;;;;;;6.50;1.00;;;;;;;16.20;29.11;98973.83;105091;1271;73149;-25
2022/05/04 10:49:03;;;;;;;2.00;1.00;;;;;;;16.77;29.60;98985.69;104929;1271;61137;-26
2022/05/04 10:51:36;;;;;;;3.50;1.00;;;;;;;16.49;29.83;98979.50;104988;1271;61787;-26
2022/05/04 10:54:21;;;;;;;8.20;1.20;;;;;;;15.93;32.54;98977.98;105080;1271;74762;-26
2022/05/04 10:56:55;;;;;;;3.30;1.10;;;;;;;15.32;33.46;98988.66;105052;1271;76569;-26
2022/05/04 10:59:34;;;;;;;5.30;1.00;;;;;;;15.25;34.18;98989.90;105202;1271;74607;-25
2022/05/04 11:02:05;;;;;;;3.90;1.40;;;;;;;15.87;32.64;98988.64;105167;1271;61159;-26
2022/05/04 11:04:34;;;;;;;2.70;1.00;;;;;;;16.27;31.74;98991.14;105161;1271;61134;-26
2022/05/04 11:07:06;;;;;;;1.60;1.00;;;;;;;16.65;30.06;98985.10;105136;1271;73767;-26
2022/05/04 11:09:43;;;;;;;3.50;1.30;;;;;;;16.99;29.18;98984.51;105128;1271;75955;-26
2022/05/04 11:12:12;;;;;;;10.70;4.30;;;;;;;17.06;28.81;98979.89;105190;1271;74470;-26
2022/05/04 11:14:41;;;;;;;7.80;4.30;;;;;;;16.73;26.92;98975.73;105355;1271;61461;-26
2022/05/04 11:17:14;;;;;;;2.40;1.10;;;;;;;17.43;28.67;98975.63;105355;1271;61025;-26
2022/05/04 11:19:46;;;;;;;1.60;1.00;;;;;;;16.14;28.21;98971.83;105066;1271;74840;-25
2022/05/04 11:22:17;;;;;;;3.40;1.30;;;;;;;16.54;29.64;98974.58;105203;1271;76083;-26
2022/05/04 11:25:06;;;;;;;2.90;1.50;;;;;;;16.27;30.51;98975.65;105103;1271;74548;-26
2022/05/04 11:27:35;;;;;;;2.00;1.40;;;;;;;15.96;31.31;98977.17;104856;1271;61169;-26
2022/05/04 11:30:05;;;;;;;3.10;1.00;;;;;;;15.90;30.52;98976.69;104893;1271;61130;-25
2022/05/04 11:32:34;;;;;;;4.40;1.50;;;;;;;15.91;30.03;98974.43;105139;1271;74775;-26
2022/05/04 11:35:04;;;;;;;3.70;1.00;;;;;;;15.46;29.78;98973.21;105171;1271;75931;-27
2022/05/04 11:37:33;;;;;;;5.40;1.20;;;;;;;15.37;30.78;98975.58;105012;1274;74503;-25
2022/05/04 11:40:14;;;;;;;4.90;0.90;;;;;;;15.01;30.58;98966.60;105459;1271;62095;-25
2022/05/04 11:42:44;;;;;;;4.90;0.80;;;;;;;15.08;31.11;98973.96;105045;1271;61143;-26
2022/05/04 11:45:13;;;;;;;2.70;1.10;;;;;;;15.08;30.92;98970.40;105140;1271;72702;-25
2022/05/04 11:47:43;;;;;;;3.00;1.00;;;;;;;15.05;31.80;98966.14;104955;1271;75652;-25
2022/05/04 11:50:11;;;;;;;2.50;0.90;;;;;;;15.13;31.59;98967.48;104914;1271;74735;-25
2022/05/04 11:52:41;;;;;;;2.20;0.90;;;;;;;15.34;32.24;98971.26;105406;1270;61005;-25
2022/05/04 11:55:09;;;;;;;2.80;1.00;;;;;;;15.84;32.03;98967.27;105415;1270;61048;-25
2022/05/04 11:57:42;;;;;;;2.10;0.90;;;;;;;16.21;31.28;98972.35;105348;1271;74790;-25
2022/05/04 12:00:14;;;;;;;1.20;0.90;;;;;;;15.53;31.11;98971.42;104953;1272;75848;-25
2022/05/04 12:02:44;;;;;;;3.50;0.80;;;;;;;15.06;32.02;98970.84;105131;1272;74609;-25
2022/05/04 12:05:13;;;;;;;1.90;1.10;;;;;;;14.95;32.50;98978.87;105400;1270;62276;-25
2022/05/04 12:07:41;;;;;;;2.70;1.00;;;;;;;14.93;31.67;98974.35;105165;1271;61963;-25
2022/05/04 12:10:10;;;;;;;6.30;1.50;;;;;;;15.05;32.05;98972.11;105186;1271;74703;-25
2022/05/04 12:12:38;;;;;;;4.90;1.00;;;;;;;15.43;32.44;98972.84;105239;1270;75046;-26